Encinitas, California
Current Conditions -  °F | °C
As of 7:53 AM on Tuesday 21 Oct 2014 (Local Time) from KCRQ Reporting Station
Overcast Overcast  
Wind Chill: 66°   Ceiling: 1100
Heat Index: 66°   Visibility: 7mi
Dew Point: 60°   Wind: 0mph
Humidity: 81%   Direction: NA
Pressure: 29.9"   Gusts: NA
Location:  33.05°N, 117.29°W
Report Text: KCRQ 211453Z 00000KT 7SM OVC011 19/16 A2990 RMK AO2 SLP123 T01890156 53008
Loading
Personal Weather Stations






























Interactive Weather Map
Tropical Storm Tracking
New forecast layout! Learn more

10-Day Weather Forecast

Advertisements
Track Severe Weather on mobile